sensor_id;sensor_type;location;lat;lon;timestamp;P1;durP1;ratioP1;P2;durP2;ratioP2
70433;SDS011;57876;47.792;12.960;2023-02-24T00:00:41;5.73;;;2.10;;
70433;SDS011;57876;47.792;12.960;2023-02-24T00:03:14;5.40;;;1.80;;
70433;SDS011;57876;47.792;12.960;2023-02-24T00:05:38;5.50;;;1.83;;
70433;SDS011;57876;47.792;12.960;2023-02-24T00:08:05;5.18;;;1.80;;
70433;SDS011;57876;47.792;12.960;2023-02-24T00:10:30;5.33;;;2.10;;
70433;SDS011;57876;47.792;12.960;2023-02-24T00:12:55;6.20;;;2.10;;
70433;SDS011;57876;47.792;12.960;2023-02-24T00:15:20;6.27;;;2.00;;
70433;SDS011;57876;47.792;12.960;2023-02-24T00:17:44;5.30;;;1.60;;
70433;SDS011;57876;47.792;12.960;2023-02-24T00:20:09;5.63;;;2.07;;
70433;SDS011;57876;47.792;12.960;2023-02-24T00:22:38;5.70;;;2.08;;
70433;SDS011;57876;47.792;12.960;2023-02-24T00:25:03;4.85;;;1.80;;
70433;SDS011;57876;47.792;12.960;2023-02-24T00:27:28;5.93;;;1.90;;
70433;SDS011;57876;47.792;12.960;2023-02-24T00:29:52;5.07;;;1.77;;
70433;SDS011;57876;47.792;12.960;2023-02-24T00:32:17;5.40;;;1.70;;
70433;SDS011;57876;47.792;12.960;2023-02-24T00:34:41;5.70;;;1.90;;
70433;SDS011;57876;47.792;12.960;2023-02-24T00:37:06;5.53;;;1.80;;
70433;SDS011;57876;47.792;12.960;2023-02-24T00:39:31;5.73;;;1.80;;
70433;SDS011;57876;47.792;12.960;2023-02-24T00:41:57;5.57;;;1.75;;
70433;SDS011;57876;47.792;12.960;2023-02-24T00:44:36;5.40;;;1.70;;
70433;SDS011;57876;47.792;12.960;2023-02-24T00:47:03;5.22;;;1.50;;
70433;SDS011;57876;47.792;12.960;2023-02-24T00:49:29;5.10;;;1.70;;
70433;SDS011;57876;47.792;12.960;2023-02-24T00:51:54;5.53;;;1.90;;
70433;SDS011;57876;47.792;12.960;2023-02-24T00:54:19;5.10;;;1.60;;
70433;SDS011;57876;47.792;12.960;2023-02-24T00:56:44;5.28;;;1.75;;
70433;SDS011;57876;47.792;12.960;2023-02-24T00:59:11;5.30;;;1.80;;
70433;SDS011;57876;47.792;12.960;2023-02-24T01:01:36;5.68;;;1.67;;
70433;SDS011;57876;47.792;12.960;2023-02-24T01:04:02;5.57;;;1.63;;
70433;SDS011;57876;47.792;12.960;2023-02-24T01:06:34;5.20;;;1.70;;
70433;SDS011;57876;47.792;12.960;2023-02-24T01:08:58;5.10;;;1.60;;
70433;SDS011;57876;47.792;12.960;2023-02-24T01:11:24;5.03;;;1.55;;
70433;SDS011;57876;47.792;12.960;2023-02-24T01:14:10;5.30;;;1.70;;
70433;SDS011;57876;47.792;12.960;2023-02-24T01:16:40;5.32;;;1.63;;
70433;SDS011;57876;47.792;12.960;2023-02-24T01:19:07;5.35;;;1.85;;
70433;SDS011;57876;47.792;12.960;2023-02-24T01:21:32;4.80;;;1.50;;
70433;SDS011;57876;47.792;12.960;2023-02-24T01:23:57;5.10;;;1.50;;
70433;SDS011;57876;47.792;12.960;2023-02-24T01:26:22;5.13;;;1.70;;
70433;SDS011;57876;47.792;12.960;2023-02-24T01:28:46;5.10;;;1.92;;
70433;SDS011;57876;47.792;12.960;2023-02-24T01:31:11;4.70;;;1.57;;
70433;SDS011;57876;47.792;12.960;2023-02-24T01:33:36;5.38;;;1.77;;
70433;SDS011;57876;47.792;12.960;2023-02-24T01:36:09;5.37;;;1.50;;
70433;SDS011;57876;47.792;12.960;2023-02-24T01:38:34;4.88;;;1.40;;
70433;SDS011;57876;47.792;12.960;2023-02-24T01:41:00;4.80;;;1.43;;
70433;SDS011;57876;47.792;12.960;2023-02-24T01:43:27;5.25;;;1.50;;
70433;SDS011;57876;47.792;12.960;2023-02-24T01:45:52;4.80;;;1.40;;
70433;SDS011;57876;47.792;12.960;2023-02-24T01:48:17;5.25;;;1.60;;
70433;SDS011;57876;47.792;12.960;2023-02-24T01:50:42;5.03;;;1.40;;
70433;SDS011;57876;47.792;12.960;2023-02-24T01:53:08;4.90;;;1.60;;
70433;SDS011;57876;47.792;12.960;2023-02-24T01:55:51;4.63;;;1.50;;
70433;SDS011;57876;47.792;12.960;2023-02-24T01:58:18;4.72;;;1.52;;
70433;SDS011;57876;47.792;12.960;2023-02-24T02:00:45;5.72;;;1.60;;
70433;SDS011;57876;47.792;12.960;2023-02-24T02:03:12;5.20;;;1.60;;
70433;SDS011;57876;47.792;12.960;2023-02-24T02:05:42;5.22;;;1.52;;
70433;SDS011;57876;47.792;12.960;2023-02-24T02:08:08;5.10;;;1.70;;
70433;SDS011;57876;47.792;12.960;2023-02-24T02:10:34;4.60;;;1.40;;
70433;SDS011;57876;47.792;12.960;2023-02-24T02:13:02;5.18;;;1.92;;
70433;SDS011;57876;47.792;12.960;2023-02-24T02:15:27;4.90;;;1.43;;
70433;SDS011;57876;47.792;12.960;2023-02-24T02:17:58;5.10;;;1.55;;
70433;SDS011;57876;47.792;12.960;2023-02-24T02:20:34;5.40;;;1.95;;
70433;SDS011;57876;47.792;12.960;2023-02-24T02:31:21;5.13;;;1.40;;
70433;SDS011;57876;47.792;12.960;2023-02-24T02:34:05;5.32;;;1.60;;
70433;SDS011;57876;47.792;12.960;2023-02-24T02:47:41;4.82;;;1.48;;
70433;SDS011;57876;47.792;12.960;2023-02-24T02:50:25;4.78;;;1.50;;
70433;SDS011;57876;47.792;12.960;2023-02-24T02:55:47;5.43;;;1.60;;
70433;SDS011;57876;47.792;12.960;2023-02-24T02:58:21;4.95;;;1.35;;
70433;SDS011;57876;47.792;12.960;2023-02-24T03:00:52;4.67;;;1.40;;
70433;SDS011;57876;47.792;12.960;2023-02-24T03:03:25;5.07;;;1.58;;
70433;SDS011;57876;47.792;12.960;2023-02-24T03:06:02;4.70;;;1.48;;
70433;SDS011;57876;47.792;12.960;2023-02-24T03:08:29;5.20;;;1.60;;
70433;SDS011;57876;47.792;12.960;2023-02-24T03:10:57;5.20;;;1.60;;
70433;SDS011;57876;47.792;12.960;2023-02-24T03:13:24;4.50;;;1.40;;
70433;SDS011;57876;47.792;12.960;2023-02-24T03:15:51;4.85;;;1.40;;
70433;SDS011;57876;47.792;12.960;2023-02-24T03:18:19;5.00;;;1.50;;
70433;SDS011;57876;47.792;12.960;2023-02-24T03:20:52;4.93;;;1.50;;
70433;SDS011;57876;47.792;12.960;2023-02-24T03:23:23;4.88;;;1.50;;
70433;SDS011;57876;47.792;12.960;2023-02-24T03:25:52;4.80;;;1.50;;
70433;SDS011;57876;47.792;12.960;2023-02-24T03:28:46;4.53;;;1.45;;
70433;SDS011;57876;47.792;12.960;2023-02-24T03:31:16;4.60;;;1.38;;
70433;SDS011;57876;47.792;12.960;2023-02-24T03:33:48;4.80;;;1.45;;
70433;SDS011;57876;47.792;12.960;2023-02-24T03:36:23;4.53;;;1.40;;
70433;SDS011;57876;47.792;12.960;2023-02-24T03:38:48;5.07;;;1.53;;
70433;SDS011;57876;47.792;12.960;2023-02-24T03:41:12;4.57;;;1.23;;
70433;SDS011;57876;47.792;12.960;2023-02-24T03:43:38;4.82;;;1.42;;
70433;SDS011;57876;47.792;12.960;2023-02-24T03:46:08;5.20;;;1.45;;
70433;SDS011;57876;47.792;12.960;2023-02-24T03:48:32;4.90;;;1.40;;
70433;SDS011;57876;47.792;12.960;2023-02-24T03:51:01;4.80;;;1.45;;
70433;SDS011;57876;47.792;12.960;2023-02-24T04:09:24;4.40;;;1.20;;
70433;SDS011;57876;47.792;12.960;2023-02-24T04:12:06;4.88;;;1.45;;
70433;SDS011;57876;47.792;12.960;2023-02-24T04:17:19;4.53;;;1.25;;
70433;SDS011;57876;47.792;12.960;2023-02-24T04:19:50;5.00;;;1.50;;
70433;SDS011;57876;47.792;12.960;2023-02-24T04:22:21;5.07;;;1.50;;
70433;SDS011;57876;47.792;12.960;2023-02-24T04:24:49;5.60;;;1.60;;
70433;SDS011;57876;47.792;12.960;2023-02-24T04:27:18;5.32;;;1.40;;
70433;SDS011;57876;47.792;12.960;2023-02-24T04:29:46;4.75;;;1.27;;
70433;SDS011;57876;47.792;12.960;2023-02-24T04:32:15;4.83;;;1.60;;
70433;SDS011;57876;47.792;12.960;2023-02-24T04:34:43;4.22;;;1.10;;
70433;SDS011;57876;47.792;12.960;2023-02-24T04:37:08;4.80;;;1.42;;
70433;SDS011;57876;47.792;12.960;2023-02-24T04:39:32;5.23;;;1.40;;
70433;SDS011;57876;47.792;12.960;2023-02-24T04:42:01;5.28;;;1.50;;
70433;SDS011;57876;47.792;12.960;2023-02-24T04:44:26;4.97;;;1.50;;
70433;SDS011;57876;47.792;12.960;2023-02-24T04:46:51;4.85;;;1.42;;
70433;SDS011;57876;47.792;12.960;2023-02-24T04:49:15;4.97;;;1.50;;
70433;SDS011;57876;47.792;12.960;2023-02-24T04:51:41;5.18;;;1.33;;
70433;SDS011;57876;47.792;12.960;2023-02-24T04:54:05;4.60;;;1.33;;
70433;SDS011;57876;47.792;12.960;2023-02-24T04:56:31;4.63;;;1.50;;
70433;SDS011;57876;47.792;12.960;2023-02-24T04:58:55;4.80;;;1.20;;
70433;SDS011;57876;47.792;12.960;2023-02-24T05:01:20;4.53;;;1.20;;
70433;SDS011;57876;47.792;12.960;2023-02-24T05:03:44;4.93;;;1.43;;
70433;SDS011;57876;47.792;12.960;2023-02-24T05:06:14;4.60;;;1.40;;
70433;SDS011;57876;47.792;12.960;2023-02-24T05:08:40;4.72;;;1.45;;
70433;SDS011;57876;47.792;12.960;2023-02-24T05:11:04;5.10;;;1.47;;
70433;SDS011;57876;47.792;12.960;2023-02-24T05:13:30;4.18;;;1.10;;
70433;SDS011;57876;47.792;12.960;2023-02-24T05:15:56;4.25;;;1.20;;
70433;SDS011;57876;47.792;12.960;2023-02-24T05:18:22;5.47;;;1.60;;
70433;SDS011;57876;47.792;12.960;2023-02-24T05:20:48;4.30;;;1.20;;
70433;SDS011;57876;47.792;12.960;2023-02-24T05:23:34;4.40;;;1.20;;
70433;SDS011;57876;47.792;12.960;2023-02-24T05:26:03;4.57;;;1.23;;
70433;SDS011;57876;47.792;12.960;2023-02-24T05:28:31;4.37;;;1.20;;
70433;SDS011;57876;47.792;12.960;2023-02-24T05:31:04;4.65;;;1.40;;
70433;SDS011;57876;47.792;12.960;2023-02-24T05:33:31;5.23;;;1.20;;
70433;SDS011;57876;47.792;12.960;2023-02-24T05:35:55;4.55;;;1.33;;
70433;SDS011;57876;47.792;12.960;2023-02-24T05:38:19;4.77;;;1.47;;
70433;SDS011;57876;47.792;12.960;2023-02-24T05:40:45;4.60;;;1.37;;
70433;SDS011;57876;47.792;12.960;2023-02-24T05:43:10;4.70;;;1.45;;
70433;SDS011;57876;47.792;12.960;2023-02-24T05:45:40;4.30;;;1.20;;
70433;SDS011;57876;47.792;12.960;2023-02-24T05:48:06;4.40;;;1.40;;
70433;SDS011;57876;47.792;12.960;2023-02-24T05:50:31;4.65;;;1.25;;
70433;SDS011;57876;47.792;12.960;2023-02-24T05:52:55;4.50;;;1.27;;
70433;SDS011;57876;47.792;12.960;2023-02-24T05:55:20;4.60;;;1.30;;
70433;SDS011;57876;47.792;12.960;2023-02-24T05:57:45;4.40;;;1.27;;
70433;SDS011;57876;47.792;12.960;2023-02-24T06:00:10;4.53;;;1.30;;
70433;SDS011;57876;47.792;12.960;2023-02-24T06:02:38;4.57;;;1.20;;
70433;SDS011;57876;47.792;12.960;2023-02-24T06:05:06;4.30;;;1.20;;
70433;SDS011;57876;47.792;12.960;2023-02-24T06:07:31;4.47;;;1.20;;
70433;SDS011;57876;47.792;12.960;2023-02-24T06:09:57;4.20;;;1.00;;
70433;SDS011;57876;47.792;12.960;2023-02-24T06:12:27;4.15;;;1.10;;
70433;SDS011;57876;47.792;12.960;2023-02-24T06:14:53;5.00;;;1.40;;
70433;SDS011;57876;47.792;12.960;2023-02-24T06:17:18;4.60;;;1.38;;
70433;SDS011;57876;47.792;12.960;2023-02-24T06:19:44;4.35;;;1.20;;
70433;SDS011;57876;47.792;12.960;2023-02-24T06:22:13;4.73;;;1.37;;
70433;SDS011;57876;47.792;12.960;2023-02-24T06:24:38;4.40;;;1.13;;
70433;SDS011;57876;47.792;12.960;2023-02-24T06:27:07;4.60;;;1.40;;
70433;SDS011;57876;47.792;12.960;2023-02-24T06:29:38;4.10;;;1.02;;
70433;SDS011;57876;47.792;12.960;2023-02-24T06:32:03;4.53;;;1.20;;
70433;SDS011;57876;47.792;12.960;2023-02-24T06:34:37;4.88;;;1.30;;
70433;SDS011;57876;47.792;12.960;2023-02-24T06:37:02;4.40;;;1.30;;
70433;SDS011;57876;47.792;12.960;2023-02-24T06:39:31;4.17;;;1.17;;
70433;SDS011;57876;47.792;12.960;2023-02-24T06:41:55;4.60;;;1.30;;
70433;SDS011;57876;47.792;12.960;2023-02-24T06:44:26;4.47;;;1.30;;
70433;SDS011;57876;47.792;12.960;2023-02-24T06:46:51;4.53;;;1.20;;
70433;SDS011;57876;47.792;12.960;2023-02-24T06:49:15;4.40;;;1.17;;
70433;SDS011;57876;47.792;12.960;2023-02-24T06:51:39;4.32;;;1.13;;
70433;SDS011;57876;47.792;12.960;2023-02-24T06:54:06;4.30;;;1.00;;
70433;SDS011;57876;47.792;12.960;2023-02-24T06:56:31;4.53;;;1.15;;
70433;SDS011;57876;47.792;12.960;2023-02-24T06:59:01;4.63;;;1.45;;
70433;SDS011;57876;47.792;12.960;2023-02-24T07:01:27;4.30;;;1.38;;
70433;SDS011;57876;47.792;12.960;2023-02-24T07:03:52;4.53;;;1.17;;
70433;SDS011;57876;47.792;12.960;2023-02-24T07:06:25;4.72;;;1.30;;
70433;SDS011;57876;47.792;12.960;2023-02-24T07:08:51;4.50;;;1.20;;
70433;SDS011;57876;47.792;12.960;2023-02-24T07:11:16;4.43;;;1.10;;
70433;SDS011;57876;47.792;12.960;2023-02-24T07:13:42;4.53;;;1.20;;
70433;SDS011;57876;47.792;12.960;2023-02-24T07:16:07;4.18;;;1.17;;
70433;SDS011;57876;47.792;12.960;2023-02-24T07:18:35;4.70;;;1.30;;
70433;SDS011;57876;47.792;12.960;2023-02-24T07:21:03;4.53;;;1.30;;
70433;SDS011;57876;47.792;12.960;2023-02-24T07:23:28;4.25;;;1.20;;
70433;SDS011;57876;47.792;12.960;2023-02-24T07:25:52;4.70;;;1.20;;
70433;SDS011;57876;47.792;12.960;2023-02-24T07:28:16;4.63;;;1.40;;
70433;SDS011;57876;47.792;12.960;2023-02-24T07:30:42;4.75;;;1.40;;
70433;SDS011;57876;47.792;12.960;2023-02-24T07:33:07;4.87;;;1.43;;
70433;SDS011;57876;47.792;12.960;2023-02-24T07:35:32;4.32;;;1.30;;
70433;SDS011;57876;47.792;12.960;2023-02-24T07:37:58;4.55;;;1.30;;
70433;SDS011;57876;47.792;12.960;2023-02-24T07:40:25;5.25;;;1.20;;
70433;SDS011;57876;47.792;12.960;2023-02-24T07:42:49;4.63;;;1.33;;
70433;SDS011;57876;47.792;12.960;2023-02-24T07:45:16;4.35;;;1.10;;
70433;SDS011;57876;47.792;12.960;2023-02-24T07:47:41;4.97;;;1.27;;
70433;SDS011;57876;47.792;12.960;2023-02-24T07:50:06;4.40;;;1.17;;
70433;SDS011;57876;47.792;12.960;2023-02-24T07:52:36;4.50;;;1.20;;
70433;SDS011;57876;47.792;12.960;2023-02-24T07:55:01;4.30;;;1.17;;
70433;SDS011;57876;47.792;12.960;2023-02-24T07:57:26;5.17;;;1.43;;
70433;SDS011;57876;47.792;12.960;2023-02-24T07:59:51;4.70;;;1.50;;
70433;SDS011;57876;47.792;12.960;2023-02-24T08:02:17;4.35;;;1.20;;
70433;SDS011;57876;47.792;12.960;2023-02-24T08:04:41;5.17;;;1.63;;
70433;SDS011;57876;47.792;12.960;2023-02-24T08:07:12;4.35;;;1.17;;
70433;SDS011;57876;47.792;12.960;2023-02-24T08:09:37;4.53;;;1.37;;
70433;SDS011;57876;47.792;12.960;2023-02-24T08:12:07;4.13;;;1.10;;
70433;SDS011;57876;47.792;12.960;2023-02-24T08:14:31;5.93;;;1.73;;
70433;SDS011;57876;47.792;12.960;2023-02-24T08:16:57;7.38;;;1.90;;
70433;SDS011;57876;47.792;12.960;2023-02-24T08:19:22;8.60;;;2.17;;
70433;SDS011;57876;47.792;12.960;2023-02-24T08:21:47;5.57;;;1.58;;
70433;SDS011;57876;47.792;12.960;2023-02-24T08:24:23;6.93;;;2.20;;
70433;SDS011;57876;47.792;12.960;2023-02-24T08:26:53;5.38;;;1.88;;
70433;SDS011;57876;47.792;12.960;2023-02-24T08:29:31;7.20;;;2.00;;
70433;SDS011;57876;47.792;12.960;2023-02-24T08:32:03;5.70;;;1.95;;
70433;SDS011;57876;47.792;12.960;2023-02-24T08:34:27;5.50;;;1.60;;
70433;SDS011;57876;47.792;12.960;2023-02-24T08:36:54;5.30;;;1.67;;
70433;SDS011;57876;47.792;12.960;2023-02-24T08:39:19;5.30;;;1.97;;
70433;SDS011;57876;47.792;12.960;2023-02-24T08:41:45;5.00;;;1.63;;
70433;SDS011;57876;47.792;12.960;2023-02-24T08:44:14;6.43;;;1.80;;
70433;SDS011;57876;47.792;12.960;2023-02-24T08:46:41;8.27;;;1.83;;
70433;SDS011;57876;47.792;12.960;2023-02-24T08:49:07;5.63;;;1.70;;
70433;SDS011;57876;47.792;12.960;2023-02-24T08:51:34;5.97;;;1.52;;
70433;SDS011;57876;47.792;12.960;2023-02-24T08:54:07;5.33;;;1.50;;
70433;SDS011;57876;47.792;12.960;2023-02-24T08:56:33;5.20;;;1.67;;
70433;SDS011;57876;47.792;12.960;2023-02-24T08:58:58;4.77;;;1.60;;
70433;SDS011;57876;47.792;12.960;2023-02-24T09:01:28;5.18;;;1.50;;
70433;SDS011;57876;47.792;12.960;2023-02-24T09:03:57;5.53;;;1.50;;
70433;SDS011;57876;47.792;12.960;2023-02-24T09:06:44;4.78;;;1.50;;
70433;SDS011;57876;47.792;12.960;2023-02-24T09:09:09;5.30;;;1.70;;
70433;SDS011;57876;47.792;12.960;2023-02-24T09:11:41;5.10;;;1.48;;
70433;SDS011;57876;47.792;12.960;2023-02-24T09:14:07;5.20;;;1.70;;
70433;SDS011;57876;47.792;12.960;2023-02-24T09:16:39;5.38;;;1.60;;
70433;SDS011;57876;47.792;12.960;2023-02-24T09:19:15;5.57;;;1.77;;
70433;SDS011;57876;47.792;12.960;2023-02-24T09:21:58;5.33;;;1.70;;
70433;SDS011;57876;47.792;12.960;2023-02-24T09:24:37;5.30;;;1.65;;
70433;SDS011;57876;47.792;12.960;2023-02-24T09:27:02;5.63;;;1.83;;
70433;SDS011;57876;47.792;12.960;2023-02-24T09:29:27;5.03;;;1.80;;
70433;SDS011;57876;47.792;12.960;2023-02-24T09:31:58;5.13;;;1.73;;
70433;SDS011;57876;47.792;12.960;2023-02-24T09:34:36;5.57;;;1.80;;
70433;SDS011;57876;47.792;12.960;2023-02-24T09:37:09;5.68;;;1.80;;
70433;SDS011;57876;47.792;12.960;2023-02-24T09:39:47;5.70;;;1.63;;
70433;SDS011;57876;47.792;12.960;2023-02-24T09:42:25;5.05;;;1.60;;
70433;SDS011;57876;47.792;12.960;2023-02-24T09:44:53;5.22;;;1.77;;
70433;SDS011;57876;47.792;12.960;2023-02-24T09:47:25;6.65;;;1.55;;
70433;SDS011;57876;47.792;12.960;2023-02-24T09:50:05;5.97;;;2.00;;
70433;SDS011;57876;47.792;12.960;2023-02-24T09:52:40;5.80;;;1.43;;
70433;SDS011;57876;47.792;12.960;2023-02-24T09:55:18;5.80;;;1.77;;
70433;SDS011;57876;47.792;12.960;2023-02-24T10:03:23;4.97;;;1.50;;
70433;SDS011;57876;47.792;12.960;2023-02-24T10:06:22;6.30;;;1.80;;
70433;SDS011;57876;47.792;12.960;2023-02-24T10:08:59;5.05;;;1.65;;
70433;SDS011;57876;47.792;12.960;2023-02-24T10:11:43;5.18;;;1.58;;
70433;SDS011;57876;47.792;12.960;2023-02-24T10:17:01;5.60;;;1.52;;
70433;SDS011;57876;47.792;12.960;2023-02-24T10:20:11;5.00;;;1.60;;
70433;SDS011;57876;47.792;12.960;2023-02-24T10:23:04;4.80;;;1.63;;
70433;SDS011;57876;47.792;12.960;2023-02-24T10:25:44;5.43;;;1.80;;
70433;SDS011;57876;47.792;12.960;2023-02-24T10:28:41;4.82;;;1.60;;
70433;SDS011;57876;47.792;12.960;2023-02-24T10:31:26;5.80;;;1.90;;
70433;SDS011;57876;47.792;12.960;2023-02-24T10:33:59;6.07;;;1.77;;
70433;SDS011;57876;47.792;12.960;2023-02-24T10:36:29;5.20;;;1.73;;
70433;SDS011;57876;47.792;12.960;2023-02-24T10:38:58;5.45;;;1.75;;
70433;SDS011;57876;47.792;12.960;2023-02-24T10:41:31;5.72;;;1.73;;
70433;SDS011;57876;47.792;12.960;2023-02-24T10:44:08;5.72;;;1.88;;
70433;SDS011;57876;47.792;12.960;2023-02-24T10:46:34;5.23;;;1.77;;
70433;SDS011;57876;47.792;12.960;2023-02-24T10:48:59;5.93;;;1.63;;
70433;SDS011;57876;47.792;12.960;2023-02-24T10:51:36;5.18;;;1.48;;
70433;SDS011;57876;47.792;12.960;2023-02-24T10:54:27;5.47;;;1.80;;
70433;SDS011;57876;47.792;12.960;2023-02-24T10:57:07;5.82;;;1.63;;
70433;SDS011;57876;47.792;12.960;2023-02-24T10:59:59;5.60;;;1.77;;
70433;SDS011;57876;47.792;12.960;2023-02-24T11:02:46;5.23;;;1.60;;
70433;SDS011;57876;47.792;12.960;2023-02-24T11:05:34;6.32;;;1.63;;
70433;SDS011;57876;47.792;12.960;2023-02-24T11:08:22;5.05;;;1.50;;
70433;SDS011;57876;47.792;12.960;2023-02-24T11:13:45;5.63;;;1.80;;
70433;SDS011;57876;47.792;12.960;2023-02-24T11:16:52;4.90;;;1.47;;
70433;SDS011;57876;47.792;12.960;2023-02-24T11:22:45;5.50;;;1.65;;
70433;SDS011;57876;47.792;12.960;2023-02-24T11:25:20;5.32;;;1.48;;
70433;SDS011;57876;47.792;12.960;2023-02-24T11:27:48;5.18;;;1.85;;
70433;SDS011;57876;47.792;12.960;2023-02-24T11:40:18;4.97;;;1.60;;
70433;SDS011;57876;47.792;12.960;2023-02-24T11:45:42;5.03;;;1.55;;
70433;SDS011;57876;47.792;12.960;2023-02-24T11:48:17;5.40;;;1.65;;
70433;SDS011;57876;47.792;12.960;2023-02-24T11:50:45;5.80;;;1.65;;
70433;SDS011;57876;47.792;12.960;2023-02-24T11:55:53;4.97;;;1.60;;
70433;SDS011;57876;47.792;12.960;2023-02-24T12:01:16;5.43;;;1.65;;
70433;SDS011;57876;47.792;12.960;2023-02-24T12:03:49;4.85;;;1.65;;
70433;SDS011;57876;47.792;12.960;2023-02-24T12:09:41;5.00;;;1.60;;
70433;SDS011;57876;47.792;12.960;2023-02-24T12:12:12;4.63;;;1.30;;
70433;SDS011;57876;47.792;12.960;2023-02-24T12:15:08;5.00;;;1.63;;
70433;SDS011;57876;47.792;12.960;2023-02-24T12:17:52;5.38;;;1.60;;
70433;SDS011;57876;47.792;12.960;2023-02-24T12:20:42;5.43;;;1.40;;
70433;SDS011;57876;47.792;12.960;2023-02-24T12:23:13;5.47;;;1.65;;
70433;SDS011;57876;47.792;12.960;2023-02-24T12:28:32;5.15;;;1.50;;
70433;SDS011;57876;47.792;12.960;2023-02-24T12:31:22;4.47;;;1.38;;
70433;SDS011;57876;47.792;12.960;2023-02-24T12:39:29;5.25;;;1.63;;
70433;SDS011;57876;47.792;12.960;2023-02-24T12:42:25;4.97;;;1.48;;
70433;SDS011;57876;47.792;12.960;2023-02-24T12:47:52;4.90;;;1.30;;
70433;SDS011;57876;47.792;12.960;2023-02-24T12:56:20;5.65;;;1.67;;
70433;SDS011;57876;47.792;12.960;2023-02-24T12:58:48;5.05;;;1.77;;
70433;SDS011;57876;47.792;12.960;2023-02-24T13:11:45;5.53;;;1.70;;
70433;SDS011;57876;47.792;12.960;2023-02-24T13:16:50;4.90;;;1.50;;
70433;SDS011;57876;47.792;12.960;2023-02-24T13:22:32;5.07;;;1.60;;
70433;SDS011;57876;47.792;12.960;2023-02-24T13:27:21;5.00;;;1.42;;
70433;SDS011;57876;47.792;12.960;2023-02-24T13:29:58;5.00;;;1.50;;
70433;SDS011;57876;47.792;12.960;2023-02-24T13:34:55;4.72;;;1.50;;
70433;SDS011;57876;47.792;12.960;2023-02-24T13:37:35;4.97;;;1.50;;
70433;SDS011;57876;47.792;12.960;2023-02-24T13:40:23;5.38;;;1.45;;
70433;SDS011;57876;47.792;12.960;2023-02-24T13:45:19;4.83;;;1.50;;
70433;SDS011;57876;47.792;12.960;2023-02-24T13:47:49;6.32;;;1.50;;
70433;SDS011;57876;47.792;12.960;2023-02-24T14:01:14;5.00;;;1.48;;
70433;SDS011;57876;47.792;12.960;2023-02-24T14:03:41;5.50;;;1.67;;
70433;SDS011;57876;47.792;12.960;2023-02-24T14:06:21;5.30;;;1.40;;
70433;SDS011;57876;47.792;12.960;2023-02-24T14:08:50;4.80;;;1.50;;
70433;SDS011;57876;47.792;12.960;2023-02-24T14:11:17;5.28;;;1.48;;
70433;SDS011;57876;47.792;12.960;2023-02-24T14:13:46;4.57;;;1.50;;
70433;SDS011;57876;47.792;12.960;2023-02-24T14:16:16;4.97;;;1.53;;
70433;SDS011;57876;47.792;12.960;2023-02-24T14:18:50;4.80;;;1.40;;
70433;SDS011;57876;47.792;12.960;2023-02-24T14:21:21;4.60;;;1.45;;
70433;SDS011;57876;47.792;12.960;2023-02-24T14:23:54;4.90;;;1.45;;
70433;SDS011;57876;47.792;12.960;2023-02-24T14:26:19;5.28;;;1.48;;
70433;SDS011;57876;47.792;12.960;2023-02-24T14:28:44;4.80;;;1.30;;
70433;SDS011;57876;47.792;12.960;2023-02-24T14:31:17;4.32;;;1.20;;
70433;SDS011;57876;47.792;12.960;2023-02-24T14:33:45;4.85;;;1.35;;
70433;SDS011;57876;47.792;12.960;2023-02-24T14:36:17;5.37;;;1.50;;
70433;SDS011;57876;47.792;12.960;2023-02-24T14:38:46;5.25;;;1.60;;
70433;SDS011;57876;47.792;12.960;2023-02-24T14:41:42;5.03;;;1.48;;
70433;SDS011;57876;47.792;12.960;2023-02-24T14:44:18;4.60;;;1.30;;
70433;SDS011;57876;47.792;12.960;2023-02-24T14:46:49;4.85;;;1.40;;
70433;SDS011;57876;47.792;12.960;2023-02-24T14:49:17;4.63;;;1.50;;
70433;SDS011;57876;47.792;12.960;2023-02-24T14:51:49;4.68;;;1.30;;
70433;SDS011;57876;47.792;12.960;2023-02-24T14:54:20;5.25;;;1.60;;
70433;SDS011;57876;47.792;12.960;2023-02-24T14:56:52;4.70;;;1.40;;
70433;SDS011;57876;47.792;12.960;2023-02-24T14:59:26;4.80;;;1.40;;
70433;SDS011;57876;47.792;12.960;2023-02-24T15:01:56;4.80;;;1.40;;
70433;SDS011;57876;47.792;12.960;2023-02-24T15:06:51;5.20;;;1.60;;
70433;SDS011;57876;47.792;12.960;2023-02-24T15:09:20;4.70;;;1.33;;
70433;SDS011;57876;47.792;12.960;2023-02-24T15:11:46;4.95;;;1.70;;
70433;SDS011;57876;47.792;12.960;2023-02-24T15:14:18;4.90;;;1.33;;
70433;SDS011;57876;47.792;12.960;2023-02-24T15:16:46;5.03;;;1.55;;
70433;SDS011;57876;47.792;12.960;2023-02-24T15:19:26;4.63;;;1.38;;
70433;SDS011;57876;47.792;12.960;2023-02-24T15:21:55;4.87;;;1.40;;
70433;SDS011;57876;47.792;12.960;2023-02-24T15:24:25;5.43;;;1.50;;
70433;SDS011;57876;47.792;12.960;2023-02-24T15:29:56;6.38;;;1.30;;
70433;SDS011;57876;47.792;12.960;2023-02-24T15:32:24;5.30;;;1.60;;
70433;SDS011;57876;47.792;12.960;2023-02-24T15:34:49;4.70;;;1.23;;
70433;SDS011;57876;47.792;12.960;2023-02-24T15:37:59;4.60;;;1.35;;
70433;SDS011;57876;47.792;12.960;2023-02-24T15:40:06;4.95;;;1.50;;
70433;SDS011;57876;47.792;12.960;2023-02-24T15:42:53;4.80;;;1.40;;
70433;SDS011;57876;47.792;12.960;2023-02-24T15:45:27;5.63;;;1.60;;
70433;SDS011;57876;47.792;12.960;2023-02-24T15:47:52;5.50;;;1.40;;
70433;SDS011;57876;47.792;12.960;2023-02-24T15:50:18;5.32;;;1.60;;
70433;SDS011;57876;47.792;12.960;2023-02-24T15:52:43;5.10;;;1.70;;
70433;SDS011;57876;47.792;12.960;2023-02-24T15:55:09;5.10;;;1.45;;
70433;SDS011;57876;47.792;12.960;2023-02-24T15:57:34;4.65;;;1.40;;
70433;SDS011;57876;47.792;12.960;2023-02-24T15:59:59;4.50;;;1.40;;
70433;SDS011;57876;47.792;12.960;2023-02-24T16:02:26;4.93;;;1.52;;
70433;SDS011;57876;47.792;12.960;2023-02-24T16:04:52;4.72;;;1.20;;
70433;SDS011;57876;47.792;12.960;2023-02-24T16:07:18;4.80;;;1.37;;
70433;SDS011;57876;47.792;12.960;2023-02-24T16:09:45;4.85;;;1.52;;
70433;SDS011;57876;47.792;12.960;2023-02-24T16:12:12;4.55;;;1.25;;
70433;SDS011;57876;47.792;12.960;2023-02-24T16:14:40;4.90;;;1.35;;
70433;SDS011;57876;47.792;12.960;2023-02-24T16:17:06;6.37;;;1.57;;
70433;SDS011;57876;47.792;12.960;2023-02-24T16:19:51;4.95;;;1.20;;
70433;SDS011;57876;47.792;12.960;2023-02-24T16:22:15;4.63;;;1.40;;
70433;SDS011;57876;47.792;12.960;2023-02-24T16:24:40;4.20;;;1.10;;
70433;SDS011;57876;47.792;12.960;2023-02-24T16:27:07;4.90;;;1.30;;
70433;SDS011;57876;47.792;12.960;2023-02-24T16:29:37;5.00;;;1.67;;
70433;SDS011;57876;47.792;12.960;2023-02-24T16:32:01;5.10;;;1.40;;
70433;SDS011;57876;47.792;12.960;2023-02-24T16:34:26;4.55;;;1.38;;
70433;SDS011;57876;47.792;12.960;2023-02-24T16:36:51;5.20;;;1.50;;
70433;SDS011;57876;47.792;12.960;2023-02-24T16:39:15;5.03;;;1.80;;
70433;SDS011;57876;47.792;12.960;2023-02-24T16:41:39;5.30;;;1.40;;
70433;SDS011;57876;47.792;12.960;2023-02-24T16:44:04;4.80;;;1.47;;
70433;SDS011;57876;47.792;12.960;2023-02-24T16:46:31;5.23;;;1.50;;
70433;SDS011;57876;47.792;12.960;2023-02-24T16:48:58;4.88;;;1.38;;
70433;SDS011;57876;47.792;12.960;2023-02-24T16:51:23;5.60;;;1.50;;
70433;SDS011;57876;47.792;12.960;2023-02-24T16:53:47;5.28;;;1.60;;
70433;SDS011;57876;47.792;12.960;2023-02-24T16:56:11;5.80;;;1.67;;
70433;SDS011;57876;47.792;12.960;2023-02-24T16:58:38;4.82;;;1.40;;
70433;SDS011;57876;47.792;12.960;2023-02-24T17:01:02;4.73;;;1.20;;
70433;SDS011;57876;47.792;12.960;2023-02-24T17:03:40;4.85;;;1.40;;